sensor_id;sensor_type;location;lat;lon;timestamp;pressure;altitude;pressure_sealevel;temperature;humidity
58927;BME280;44712;52.530;9.760;2023-03-04T00:02:09;101678.31;;;3.53;97.71
58927;BME280;44712;52.530;9.760;2023-03-04T00:04:36;101668.72;;;3.60;97.94
58927;BME280;44712;52.530;9.760;2023-03-04T00:07:03;101682.06;;;3.58;97.90
58927;BME280;44712;52.530;9.760;2023-03-04T00:09:29;101663.31;;;3.58;97.96
58927;BME280;44712;52.530;9.760;2023-03-04T00:11:56;101674.16;;;3.63;97.76
58927;BME280;44712;52.530;9.760;2023-03-04T00:14:22;101675.16;;;3.66;97.44
58927;BME280;44712;52.530;9.760;2023-03-04T00:16:49;101670.63;;;3.64;97.27
58927;BME280;44712;52.530;9.760;2023-03-04T00:19:16;101668.84;;;3.64;97.66
58927;BME280;44712;52.530;9.760;2023-03-04T00:21:43;101669.69;;;3.63;97.78
58927;BME280;44712;52.530;9.760;2023-03-04T00:24:10;101673.34;;;3.65;98.12
58927;BME280;44712;52.530;9.760;2023-03-04T00:26:36;101666.16;;;3.64;97.91
58927;BME280;44712;52.530;9.760;2023-03-04T00:29:03;101662.63;;;3.65;97.75
58927;BME280;44712;52.530;9.760;2023-03-04T00:31:30;101669.06;;;3.72;97.62
58927;BME280;44712;52.530;9.760;2023-03-04T00:33:56;101661.91;;;3.71;97.89
58927;BME280;44712;52.530;9.760;2023-03-04T00:36:23;101662.06;;;3.76;97.61
58927;BME280;44712;52.530;9.760;2023-03-04T00:38:50;101659.25;;;3.73;97.63
58927;BME280;44712;52.530;9.760;2023-03-04T00:41:17;101659.25;;;3.73;97.83
58927;BME280;44712;52.530;9.760;2023-03-04T00:43:43;101646.75;;;3.72;98.01
58927;BME280;44712;52.530;9.760;2023-03-04T00:46:10;101652.19;;;3.75;98.23
58927;BME280;44712;52.530;9.760;2023-03-04T00:48:36;101654.00;;;3.76;98.10
58927;BME280;44712;52.530;9.760;2023-03-04T00:51:04;101647.78;;;3.77;97.87
58927;BME280;44712;52.530;9.760;2023-03-04T00:53:31;101654.19;;;3.82;97.72
58927;BME280;44712;52.530;9.760;2023-03-04T00:55:57;101648.75;;;3.79;97.84
58927;BME280;44712;52.530;9.760;2023-03-04T00:58:24;101653.28;;;3.81;98.01
58927;BME280;44712;52.530;9.760;2023-03-04T01:00:51;101639.94;;;3.83;97.88
58927;BME280;44712;52.530;9.760;2023-03-04T01:03:22;101634.50;;;3.80;97.94
58927;BME280;44712;52.530;9.760;2023-03-04T01:05:49;101638.03;;;3.79;98.30
58927;BME280;44712;52.530;9.760;2023-03-04T01:08:20;101636.47;;;3.87;97.69
58927;BME280;44712;52.530;9.760;2023-03-04T01:10:46;101637.28;;;3.84;98.03
58927;BME280;44712;52.530;9.760;2023-03-04T01:13:13;101631.91;;;3.83;98.35
58927;BME280;44712;52.530;9.760;2023-03-04T01:15:41;101627.50;;;3.85;98.19
58927;BME280;44712;52.530;9.760;2023-03-04T01:18:08;101624.00;;;3.88;97.96
58927;BME280;44712;52.530;9.760;2023-03-04T01:20:35;101625.88;;;3.90;98.12
58927;BME280;44712;52.530;9.760;2023-03-04T01:23:01;101618.59;;;3.86;98.32
58927;BME280;44712;52.530;9.760;2023-03-04T01:25:28;101624.03;;;3.89;98.30
58927;BME280;44712;52.530;9.760;2023-03-04T01:27:54;101612.59;;;3.95;98.16
58927;BME280;44712;52.530;9.760;2023-03-04T01:30:21;101622.31;;;3.91;97.99
58927;BME280;44712;52.530;9.760;2023-03-04T01:32:48;101617.91;;;3.93;98.30
58927;BME280;44712;52.530;9.760;2023-03-04T01:35:15;101613.59;;;3.98;98.35
58927;BME280;44712;52.530;9.760;2023-03-04T01:37:42;101608.25;;;3.98;97.93
58927;BME280;44712;52.530;9.760;2023-03-04T01:40:10;101598.34;;;3.96;98.36
58927;BME280;44712;52.530;9.760;2023-03-04T01:42:40;101599.16;;;3.93;98.64
58927;BME280;44712;52.530;9.760;2023-03-04T01:45:11;101601.13;;;4.00;98.58
58927;BME280;44712;52.530;9.760;2023-03-04T01:47:39;101587.84;;;4.04;98.36
58927;BME280;44712;52.530;9.760;2023-03-04T01:50:16;101587.91;;;4.07;98.00
58927;BME280;44712;52.530;9.760;2023-03-04T01:52:45;101579.81;;;4.04;98.07
58927;BME280;44712;52.530;9.760;2023-03-04T01:55:20;101578.88;;;4.03;98.37
58927;BME280;44712;52.530;9.760;2023-03-04T01:57:48;101570.00;;;4.04;98.52
58927;BME280;44712;52.530;9.760;2023-03-04T02:00:28;101565.63;;;4.08;98.37
58927;BME280;44712;52.530;9.760;2023-03-04T02:02:59;101566.47;;;4.07;98.71
58927;BME280;44712;52.530;9.760;2023-03-04T02:05:29;101572.84;;;4.10;98.72
58927;BME280;44712;52.530;9.760;2023-03-04T02:07:57;101569.25;;;4.10;98.52
58927;BME280;44712;52.530;9.760;2023-03-04T02:10:30;101556.81;;;4.12;98.71
58927;BME280;44712;52.530;9.760;2023-03-04T02:12:58;101562.06;;;4.09;98.81
58927;BME280;44712;52.530;9.760;2023-03-04T02:15:25;101558.56;;;4.11;98.98
58927;BME280;44712;52.530;9.760;2023-03-04T02:17:52;101553.16;;;4.10;99.11
58927;BME280;44712;52.530;9.760;2023-03-04T02:23:17;101553.34;;;4.16;99.18
58927;BME280;44712;52.530;9.760;2023-03-04T02:25:49;101547.97;;;4.16;99.29
58927;BME280;44712;52.530;9.760;2023-03-04T02:28:18;101545.56;;;4.27;99.12
58927;BME280;44712;52.530;9.760;2023-03-04T02:30:45;101542.75;;;4.22;99.42
58927;BME280;44712;52.530;9.760;2023-03-04T02:33:15;101542.75;;;4.22;99.31
58927;BME280;44712;52.530;9.760;2023-03-04T02:35:46;101533.72;;;4.17;99.61
58927;BME280;44712;52.530;9.760;2023-03-04T02:38:13;101539.94;;;4.16;99.88
58927;BME280;44712;52.530;9.760;2023-03-04T02:40:42;101535.44;;;4.15;100.00
58927;BME280;44712;52.530;9.760;2023-03-04T02:43:13;101539.06;;;4.17;99.98
58927;BME280;44712;52.530;9.760;2023-03-04T02:45:45;101540.16;;;4.24;99.58
58927;BME280;44712;52.530;9.760;2023-03-04T02:48:17;101537.56;;;4.28;99.65
58927;BME280;44712;52.530;9.760;2023-03-04T02:50:47;101538.31;;;4.23;99.60
58927;BME280;44712;52.530;9.760;2023-03-04T02:53:15;101530.31;;;4.24;99.68
58927;BME280;44712;52.530;9.760;2023-03-04T02:55:42;101530.50;;;4.30;99.53
58927;BME280;44712;52.530;9.760;2023-03-04T02:58:11;101525.03;;;4.27;99.53
58927;BME280;44712;52.530;9.760;2023-03-04T03:00:39;101536.81;;;4.34;99.66
58927;BME280;44712;52.530;9.760;2023-03-04T03:03:07;101531.41;;;4.32;99.57
58927;BME280;44712;52.530;9.760;2023-03-04T03:05:35;101534.09;;;4.32;99.52
58927;BME280;44712;52.530;9.760;2023-03-04T03:08:02;101536.75;;;4.31;100.00
58927;BME280;44712;52.530;9.760;2023-03-04T03:10:29;101546.56;;;4.30;100.00
58927;BME280;44712;52.530;9.760;2023-03-04T03:12:56;101539.44;;;4.32;100.00
58927;BME280;44712;52.530;9.760;2023-03-04T03:15:23;101537.69;;;4.33;100.00
58927;BME280;44712;52.530;9.760;2023-03-04T03:17:50;101530.50;;;4.30;100.00
58927;BME280;44712;52.530;9.760;2023-03-04T03:20:17;101533.16;;;4.30;100.00
58927;BME280;44712;52.530;9.760;2023-03-04T03:22:45;101532.28;;;4.31;100.00
58927;BME280;44712;52.530;9.760;2023-03-04T03:25:14;101529.66;;;4.33;100.00
58927;BME280;44712;52.530;9.760;2023-03-04T03:27:42;101528.72;;;4.32;100.00
58927;BME280;44712;52.530;9.760;2023-03-04T03:30:12;101531.34;;;4.29;100.00
58927;BME280;44712;52.530;9.760;2023-03-04T03:32:39;101527.00;;;4.34;100.00
58927;BME280;44712;52.530;9.760;2023-03-04T03:35:10;101525.19;;;4.33;100.00
58927;BME280;44712;52.530;9.760;2023-03-04T03:37:36;101519.78;;;4.30;100.00
58927;BME280;44712;52.530;9.760;2023-03-04T03:40:03;101526.03;;;4.31;100.00
58927;BME280;44712;52.530;9.760;2023-03-04T03:42:30;101526.09;;;4.34;100.00
58927;BME280;44712;52.530;9.760;2023-03-04T03:44:57;101515.28;;;4.31;100.00
58927;BME280;44712;52.530;9.760;2023-03-04T03:47:23;101515.19;;;4.26;100.00
58927;BME280;44712;52.530;9.760;2023-03-04T03:49:50;101514.41;;;4.30;100.00
58927;BME280;44712;52.530;9.760;2023-03-04T03:52:17;101509.97;;;4.32;100.00
58927;BME280;44712;52.530;9.760;2023-03-04T03:54:44;101503.75;;;4.33;100.00
58927;BME280;44712;52.530;9.760;2023-03-04T03:57:11;101508.34;;;4.39;100.00
58927;BME280;44712;52.530;9.760;2023-03-04T03:59:37;101504.59;;;4.32;100.00
58927;BME280;44712;52.530;9.760;2023-03-04T04:02:04;101516.16;;;4.30;100.00
58927;BME280;44712;52.530;9.760;2023-03-04T04:04:31;101508.03;;;4.25;100.00
58927;BME280;44712;52.530;9.760;2023-03-04T04:06:58;101501.03;;;4.32;100.00
58927;BME280;44712;52.530;9.760;2023-03-04T04:09:24;101491.91;;;4.24;100.00
58927;BME280;44712;52.530;9.760;2023-03-04T04:11:51;101493.75;;;4.26;100.00
58927;BME280;44712;52.530;9.760;2023-03-04T04:14:19;101495.50;;;4.26;100.00
58927;BME280;44712;52.530;9.760;2023-03-04T04:16:46;101487.50;;;4.27;100.00
58927;BME280;44712;52.530;9.760;2023-03-04T04:19:17;101490.91;;;4.20;100.00
58927;BME280;44712;52.530;9.760;2023-03-04T04:21:44;101483.66;;;4.16;100.00
58927;BME280;44712;52.530;9.760;2023-03-04T04:24:11;101494.38;;;4.16;100.00
58927;BME280;44712;52.530;9.760;2023-03-04T04:26:38;101495.34;;;4.19;100.00
58927;BME280;44712;52.530;9.760;2023-03-04T04:29:05;101490.78;;;4.15;100.00
58927;BME280;44712;52.530;9.760;2023-03-04T04:31:32;101490.91;;;4.20;100.00
58927;BME280;44712;52.530;9.760;2023-03-04T04:33:59;101487.22;;;4.15;100.00
58927;BME280;44712;52.530;9.760;2023-03-04T04:36:25;101486.25;;;4.13;100.00
58927;BME280;44712;52.530;9.760;2023-03-04T04:38:52;101488.78;;;4.07;100.00
58927;BME280;44712;52.530;9.760;2023-03-04T04:41:22;101484.34;;;4.09;100.00
58927;BME280;44712;52.530;9.760;2023-03-04T04:43:49;101484.44;;;4.10;100.00
58927;BME280;44712;52.530;9.760;2023-03-04T04:46:16;101484.44;;;4.10;100.00
58927;BME280;44712;52.530;9.760;2023-03-04T04:48:45;101483.50;;;4.10;100.00
58927;BME280;44712;52.530;9.760;2023-03-04T04:51:12;101470.91;;;4.06;100.00
58927;BME280;44712;52.530;9.760;2023-03-04T04:53:38;101465.75;;;4.15;100.00
58927;BME280;44712;52.530;9.760;2023-03-04T04:56:10;101463.00;;;4.10;100.00
58927;BME280;44712;52.530;9.760;2023-03-04T04:58:37;101459.34;;;4.08;100.00
58927;BME280;44712;52.530;9.760;2023-03-04T05:01:04;101456.63;;;4.07;100.00
58927;BME280;44712;52.530;9.760;2023-03-04T05:03:32;101456.44;;;3.99;100.00
58927;BME280;44712;52.530;9.760;2023-03-04T05:06:00;101454.72;;;4.01;100.00
58927;BME280;44712;52.530;9.760;2023-03-04T05:08:26;101456.47;;;4.00;100.00
58927;BME280;44712;52.530;9.760;2023-03-04T05:10:53;101448.31;;;3.94;100.00
58927;BME280;44712;52.530;9.760;2023-03-04T05:13:20;101448.06;;;3.85;100.00
58927;BME280;44712;52.530;9.760;2023-03-04T05:15:46;101448.09;;;3.87;100.00
58927;BME280;44712;52.530;9.760;2023-03-04T05:18:13;101456.00;;;3.82;100.00
58927;BME280;44712;52.530;9.760;2023-03-04T05:20:40;101461.44;;;3.85;100.00
58927;BME280;44712;52.530;9.760;2023-03-04T05:23:12;101461.53;;;3.88;100.00
58927;BME280;44712;52.530;9.760;2023-03-04T05:25:40;101455.28;;;3.88;100.00
58927;BME280;44712;52.530;9.760;2023-03-04T05:28:06;101456.09;;;3.85;100.00
58927;BME280;44712;52.530;9.760;2023-03-04T05:30:38;101452.38;;;3.80;100.00
58927;BME280;44712;52.530;9.760;2023-03-04T05:33:06;101454.88;;;3.74;100.00
58927;BME280;44712;52.530;9.760;2023-03-04T05:35:39;101462.09;;;3.76;100.00
58927;BME280;44712;52.530;9.760;2023-03-04T05:38:08;101454.91;;;3.75;100.00
58927;BME280;44712;52.530;9.760;2023-03-04T05:40:39;101452.22;;;3.74;100.00
58927;BME280;44712;52.530;9.760;2023-03-04T05:43:07;101452.22;;;3.74;100.00
58927;BME280;44712;52.530;9.760;2023-03-04T05:45:34;101459.47;;;3.78;100.00
58927;BME280;44712;52.530;9.760;2023-03-04T05:48:02;101455.16;;;3.84;100.00
58927;BME280;44712;52.530;9.760;2023-03-04T05:50:29;101456.94;;;3.84;100.00
58927;BME280;44712;52.530;9.760;2023-03-04T05:52:56;101456.09;;;3.85;100.00
58927;BME280;44712;52.530;9.760;2023-03-04T05:55:23;101457.81;;;3.83;100.00
58927;BME280;44712;52.530;9.760;2023-03-04T05:57:50;101463.09;;;3.80;100.00
58927;BME280;44712;52.530;9.760;2023-03-04T06:00:17;101456.81;;;3.79;100.00
58927;BME280;44712;52.530;9.760;2023-03-04T06:02:44;101462.34;;;3.85;100.00
58927;BME280;44712;52.530;9.760;2023-03-04T06:05:12;101457.06;;;3.89;100.00
58927;BME280;44712;52.530;9.760;2023-03-04T06:07:39;101457.75;;;3.80;100.00
58927;BME280;44712;52.530;9.760;2023-03-04T06:10:09;101455.94;;;3.80;100.00
58927;BME280;44712;52.530;9.760;2023-03-04T06:12:36;101454.28;;;3.84;100.00
58927;BME280;44712;52.530;9.760;2023-03-04T06:15:03;101457.88;;;3.86;100.00
58927;BME280;44712;52.530;9.760;2023-03-04T06:17:31;101448.84;;;3.81;100.00
58927;BME280;44712;52.530;9.760;2023-03-04T06:19:58;101438.28;;;3.87;100.00
58927;BME280;44712;52.530;9.760;2023-03-04T06:22:25;101448.91;;;3.84;100.00
58927;BME280;44712;52.530;9.760;2023-03-04T06:24:51;101456.09;;;3.85;100.00
58927;BME280;44712;52.530;9.760;2023-03-04T06:27:18;101457.84;;;3.84;100.00
58927;BME280;44712;52.530;9.760;2023-03-04T06:29:44;101459.63;;;3.84;100.00
58927;BME280;44712;52.530;9.760;2023-03-04T06:32:11;101461.34;;;3.82;100.00
58927;BME280;44712;52.530;9.760;2023-03-04T06:34:37;101458.78;;;3.85;100.00
58927;BME280;44712;52.530;9.760;2023-03-04T06:37:04;101454.22;;;3.81;100.00
58927;BME280;44712;52.530;9.760;2023-03-04T06:39:31;101463.16;;;3.83;100.00
58927;BME280;44712;52.530;9.760;2023-03-04T06:41:58;101460.41;;;3.80;100.00
58927;BME280;44712;52.530;9.760;2023-03-04T06:44:24;101465.66;;;3.77;100.00
58927;BME280;44712;52.530;9.760;2023-03-04T06:46:51;101455.91;;;3.79;100.00
58927;BME280;44712;52.530;9.760;2023-03-04T06:49:18;101457.75;;;3.80;100.00
58927;BME280;44712;52.530;9.760;2023-03-04T06:51:44;101461.44;;;3.85;100.00
58927;BME280;44712;52.530;9.760;2023-03-04T06:54:11;101461.34;;;3.82;100.00
58927;BME280;44712;52.530;9.760;2023-03-04T06:56:37;101460.53;;;3.84;100.00
58927;BME280;44712;52.530;9.760;2023-03-04T06:59:04;101459.69;;;3.87;100.00
58927;BME280;44712;52.530;9.760;2023-03-04T07:01:30;101455.16;;;3.84;100.00
58927;BME280;44712;52.530;9.760;2023-03-04T07:03:57;101459.84;;;3.92;100.00
58927;BME280;44712;52.530;9.760;2023-03-04T07:06:25;101457.88;;;3.86;100.00
58927;BME280;44712;52.530;9.760;2023-03-04T07:08:53;101449.91;;;3.88;100.00
58927;BME280;44712;52.530;9.760;2023-03-04T07:11:20;101459.69;;;3.87;100.00
58927;BME280;44712;52.530;9.760;2023-03-04T07:13:47;101453.53;;;3.90;100.00
58927;BME280;44712;52.530;9.760;2023-03-04T07:16:17;101458.06;;;3.92;100.00
58927;BME280;44712;52.530;9.760;2023-03-04T07:18:45;101458.88;;;3.90;100.00
58927;BME280;44712;52.530;9.760;2023-03-04T07:21:13;101454.47;;;3.92;100.00
58927;BME280;44712;52.530;9.760;2023-03-04T07:23:40;101450.97;;;3.94;100.00
58927;BME280;44712;52.530;9.760;2023-03-04T07:26:07;101454.59;;;3.96;100.00
58927;BME280;44712;52.530;9.760;2023-03-04T07:28:34;101464.47;;;3.99;100.00
58927;BME280;44712;52.530;9.760;2023-03-04T07:31:13;101466.25;;;3.98;100.00
58927;BME280;44712;52.530;9.760;2023-03-04T07:33:45;101467.28;;;4.04;100.00
58927;BME280;44712;52.530;9.760;2023-03-04T07:36:11;101475.34;;;4.05;100.00
58927;BME280;44712;52.530;9.760;2023-03-04T07:38:45;101474.44;;;4.05;100.00
58927;BME280;44712;52.530;9.760;2023-03-04T07:41:12;101477.16;;;4.06;100.00
58927;BME280;44712;52.530;9.760;2023-03-04T07:43:39;101471.88;;;4.09;100.00
58927;BME280;44712;52.530;9.760;2023-03-04T07:46:06;101480.03;;;4.14;100.00
58927;BME280;44712;52.530;9.760;2023-03-04T07:48:33;101475.63;;;4.16;100.00
58927;BME280;44712;52.530;9.760;2023-03-04T07:51:22;101480.28;;;4.25;100.00
58927;BME280;44712;52.530;9.760;2023-03-04T07:53:52;101474.91;;;4.23;100.00
58927;BME280;44712;52.530;9.760;2023-03-04T07:56:23;101478.59;;;4.28;100.00
58927;BME280;44712;52.530;9.760;2023-03-04T07:58:50;101473.25;;;4.28;100.00
58927;BME280;44712;52.530;9.760;2023-03-04T08:01:22;101475.13;;;4.32;100.00
58927;BME280;44712;52.530;9.760;2023-03-04T08:03:49;101473.41;;;4.34;100.00
58927;BME280;44712;52.530;9.760;2023-03-04T08:06:17;101468.91;;;4.33;100.00
58927;BME280;44712;52.530;9.760;2023-03-04T08:08:46;101470.84;;;4.41;100.00
58927;BME280;44712;52.530;9.760;2023-03-04T08:11:16;101476.16;;;4.38;100.00
58927;BME280;44712;52.530;9.760;2023-03-04T08:13:44;101470.81;;;4.39;100.00
58927;BME280;44712;52.530;9.760;2023-03-04T08:16:12;101478.91;;;4.41;100.00
58927;BME280;44712;52.530;9.760;2023-03-04T08:18:46;101468.13;;;4.39;100.00
58927;BME280;44712;52.530;9.760;2023-03-04T08:21:16;101479.78;;;4.40;100.00
58927;BME280;44712;52.530;9.760;2023-03-04T08:23:45;101477.19;;;4.44;100.00
58927;BME280;44712;52.530;9.760;2023-03-04T08:28:43;101483.34;;;4.39;100.00
58927;BME280;44712;52.530;9.760;2023-03-04T08:31:15;101472.91;;;4.51;100.00
58927;BME280;44712;52.530;9.760;2023-03-04T08:33:42;101465.88;;;4.56;100.00
58927;BME280;44712;52.530;9.760;2023-03-04T08:36:11;101470.50;;;4.63;100.00
58927;BME280;44712;52.530;9.760;2023-03-04T08:38:38;101473.09;;;4.59;100.00
58927;BME280;44712;52.530;9.760;2023-03-04T08:41:05;101465.09;;;4.62;100.00
58927;BME280;44712;52.530;9.760;2023-03-04T08:43:32;101465.09;;;4.62;100.00
58927;BME280;44712;52.530;9.760;2023-03-04T08:45:59;101460.69;;;4.64;100.00
58927;BME280;44712;52.530;9.760;2023-03-04T08:48:28;101458.09;;;4.68;100.00
58927;BME280;44712;52.530;9.760;2023-03-04T08:50:55;101467.16;;;4.74;100.00
58927;BME280;44712;52.530;9.760;2023-03-04T08:53:23;101468.88;;;4.72;100.00
58927;BME280;44712;52.530;9.760;2023-03-04T08:55:51;101470.53;;;4.65;100.00
58927;BME280;44712;52.530;9.760;2023-03-04T08:58:18;101464.22;;;4.63;100.00
58927;BME280;44712;52.530;9.760;2023-03-04T09:00:46;101464.38;;;4.69;100.00
58927;BME280;44712;52.530;9.760;2023-03-04T09:03:14;101462.69;;;4.74;100.00
58927;BME280;44712;52.530;9.760;2023-03-04T09:05:43;101461.00;;;4.78;100.00
58927;BME280;44712;52.530;9.760;2023-03-04T09:08:10;101458.38;;;4.81;100.00
58927;BME280;44712;52.530;9.760;2023-03-04T09:10:37;101457.72;;;4.93;100.00
58927;BME280;44712;52.530;9.760;2023-03-04T09:13:03;101457.88;;;4.99;100.00
58927;BME280;44712;52.530;9.760;2023-03-04T09:15:32;101459.91;;;5.09;100.00
58927;BME280;44712;52.530;9.760;2023-03-04T09:18:02;101454.56;;;5.11;100.00
58927;BME280;44712;52.530;9.760;2023-03-04T09:20:29;101464.53;;;5.18;100.00
58927;BME280;44712;52.530;9.760;2023-03-04T09:22:56;101452.97;;;5.22;100.00
58927;BME280;44712;52.530;9.760;2023-03-04T09:25:22;101457.44;;;5.20;100.00
58927;BME280;44712;52.530;9.760;2023-03-04T09:27:49;101466.28;;;5.16;100.00
58927;BME280;44712;52.530;9.760;2023-03-04T09:30:16;101468.22;;;5.23;100.00
58927;BME280;44712;52.530;9.760;2023-03-04T09:32:42;101468.09;;;5.17;100.00
58927;BME280;44712;52.530;9.760;2023-03-04T09:35:09;101477.91;;;5.15;100.00
58927;BME280;44712;52.530;9.760;2023-03-04T09:37:36;101465.31;;;5.12;100.00
58927;BME280;44712;52.530;9.760;2023-03-04T09:40:07;101480.56;;;5.15;100.00
58927;BME280;44712;52.530;9.760;2023-03-04T09:42:44;101477.75;;;5.09;100.00
58927;BME280;44712;52.530;9.760;2023-03-04T09:45:17;101488.47;;;5.07;100.00
58927;BME280;44712;52.530;9.760;2023-03-04T09:47:46;101476.06;;;5.12;100.00
58927;BME280;44712;52.530;9.760;2023-03-04T09:50:15;101484.84;;;5.05;100.00
58927;BME280;44712;52.530;9.760;2023-03-04T09:55:37;101479.53;;;5.07;100.00
58927;BME280;44712;52.530;9.760;2023-03-04T10:01:15;101478.56;;;5.05;100.00
58927;BME280;44712;52.530;9.760;2023-03-04T10:03:47;101474.97;;;5.02;100.00
58927;BME280;44712;52.530;9.760;2023-03-04T10:06:19;101471.47;;;5.07;100.00
58927;BME280;44712;52.530;9.760;2023-03-04T10:08:57;101478.56;;;5.05;100.00
58927;BME280;44712;52.530;9.760;2023-03-04T10:11:36;101469.59;;;5.02;100.00
58927;BME280;44712;52.530;9.760;2023-03-04T10:14:15;101481.16;;;5.00;100.00
58927;BME280;44712;52.530;9.760;2023-03-04T10:16:50;101469.44;;;4.96;100.00
58927;BME280;44712;52.530;9.760;2023-03-04T10:19:20;101471.19;;;4.94;100.00
58927;BME280;44712;52.530;9.760;2023-03-04T10:21:50;101474.81;;;4.96;100.00
58927;BME280;44712;52.530;9.760;2023-03-04T10:24:27;101473.94;;;4.97;100.00
58927;BME280;44712;52.530;9.760;2023-03-04T10:26:59;101471.25;;;4.97;100.00
58927;BME280;44712;52.530;9.760;2023-03-04T10:29:29;101469.50;;;4.99;100.00
58927;BME280;44712;52.530;9.760;2023-03-04T10:31:57;101467.81;;;5.05;100.00
58927;BME280;44712;52.530;9.760;2023-03-04T10:34:24;101468.03;;;5.14;100.00
58927;BME280;44712;52.530;9.760;2023-03-04T10:36:55;101475.31;;;5.21;100.00
58927;BME280;44712;52.530;9.760;2023-03-04T10:39:29;101461.47;;;5.44;100.00
58927;BME280;44712;52.530;9.760;2023-03-04T10:42:05;101466.19;;;5.57;100.00
58927;BME280;44712;52.530;9.760;2023-03-04T10:44:34;101477.72;;;5.51;100.00
58927;BME280;44712;52.530;9.760;2023-03-04T10:47:01;101477.53;;;5.41;100.00
58927;BME280;44712;52.530;9.760;2023-03-04T10:49:28;101480.00;;;5.30;100.00
58927;BME280;44712;52.530;9.760;2023-03-04T10:55:01;101475.16;;;5.12;100.00
58927;BME280;44712;52.530;9.760;2023-03-04T10:57:37;101483.22;;;5.12;100.00
58927;BME280;44712;52.530;9.760;2023-03-04T11:00:31;101474.56;;;5.27;100.00
58927;BME280;44712;52.530;9.760;2023-03-04T11:03:22;101473.97;;;5.42;100.00
58927;BME280;44712;52.530;9.760;2023-03-04T11:05:50;101463.50;;;5.57;100.00
58927;BME280;44712;52.530;9.760;2023-03-04T11:08:21;101462.91;;;5.70;100.00
58927;BME280;44712;52.530;9.760;2023-03-04T11:10:49;101465.81;;;5.83;100.00
58927;BME280;44712;52.530;9.760;2023-03-04T11:15:50;101459.66;;;5.92;100.00
58927;BME280;44712;52.530;9.760;2023-03-04T11:18:41;101463.19;;;5.89;100.00
58927;BME280;44712;52.530;9.760;2023-03-04T11:21:21;101464.09;;;5.88;100.00
58927;BME280;44712;52.530;9.760;2023-03-04T11:24:12;101463.97;;;5.82;100.00
58927;BME280;44712;52.530;9.760;2023-03-04T11:27:02;101464.94;;;5.84;100.00
58927;BME280;44712;52.530;9.760;2023-03-04T11:29:42;101462.66;;;6.06;100.00
58927;BME280;44712;52.530;9.760;2023-03-04T11:32:42;101459.97;;;6.06;100.00
58927;BME280;44712;52.530;9.760;2023-03-04T11:35:23;101456.34;;;6.05;100.00
58927;BME280;44712;52.530;9.760;2023-03-04T11:38:05;101458.66;;;5.85;99.16
58927;BME280;44712;52.530;9.760;2023-03-04T11:40:56;101456.88;;;5.84;98.52
58927;BME280;44712;52.530;9.760;2023-03-04T11:43:31;101450.72;;;5.93;97.68
58927;BME280;44712;52.530;9.760;2023-03-04T11:49:42;101444.28;;;6.33;97.55
58927;BME280;44712;52.530;9.760;2023-03-04T11:52:18;101433.72;;;6.46;94.08
58927;BME280;44712;52.530;9.760;2023-03-04T11:57:37;101442.47;;;6.32;95.08
58927;BME280;44712;52.530;9.760;2023-03-04T12:03:14;101440.56;;;6.25;96.07
58927;BME280;44712;52.530;9.760;2023-03-04T12:06:05;101440.34;;;6.11;95.61
58927;BME280;44712;52.530;9.760;2023-03-04T12:17:26;101427.84;;;5.64;100.00
58927;BME280;44712;52.530;9.760;2023-03-04T12:22:57;101437.28;;;5.42;100.00
58927;BME280;44712;52.530;9.760;2023-03-04T12:25:48;101416.53;;;5.33;100.00
58927;BME280;44712;52.530;9.760;2023-03-04T12:28:39;101415.69;;;5.36;100.00
58927;BME280;44712;52.530;9.760;2023-03-04T12:31:29;101406.91;;;5.45;100.00
58927;BME280;44712;52.530;9.760;2023-03-04T12:39:31;101416.31;;;5.70;100.00
58927;BME280;44712;52.530;9.760;2023-03-04T12:47:59;101395.06;;;6.39;98.10
58927;BME280;44712;52.530;9.760;2023-03-04T12:50:35;101398.91;;;6.58;95.77
58927;BME280;44712;52.530;9.760;2023-03-04T12:55:58;101405.09;;;6.49;92.85
58927;BME280;44712;52.530;9.760;2023-03-04T12:58:30;101397.03;;;6.51;95.07
58927;BME280;44712;52.530;9.760;2023-03-04T13:01:15;101389.81;;;6.47;90.13
58927;BME280;44712;52.530;9.760;2023-03-04T13:04:01;101382.63;;;6.46;88.81
58927;BME280;44712;52.530;9.760;2023-03-04T13:06:45;101384.38;;;6.44;87.34
58927;BME280;44712;52.530;9.760;2023-03-04T13:09:27;101368.31;;;6.47;83.13
58927;BME280;44712;52.530;9.760;2023-03-04T13:12:19;101382.69;;;6.52;82.05
58927;BME280;44712;52.530;9.760;2023-03-04T13:17:50;101377.50;;;6.64;80.17
58927;BME280;44712;52.530;9.760;2023-03-04T13:23:03;101380.81;;;6.45;83.58
58927;BME280;44712;52.530;9.760;2023-03-04T13:25:48;101381.59;;;6.36;86.30
58927;BME280;44712;52.530;9.760;2023-03-04T13:28:35;101374.94;;;6.11;87.42
58927;BME280;44712;52.530;9.760;2023-03-04T13:36:04;101380.03;;;5.95;89.10
58927;BME280;44712;52.530;9.760;2023-03-04T13:38:36;101378.22;;;5.94;89.43
58927;BME280;44712;52.530;9.760;2023-03-04T13:41:13;101372.84;;;5.94;88.29
58927;BME280;44712;52.530;9.760;2023-03-04T13:43:46;101377.19;;;5.87;88.60
58927;BME280;44712;52.530;9.760;2023-03-04T13:51:26;101381.81;;;5.95;84.96
58927;BME280;44712;52.530;9.760;2023-03-04T13:56:37;101381.03;;;5.99;84.96
58927;BME280;44712;52.530;9.760;2023-03-04T13:59:57;101381.03;;;6.00;83.44
58927;BME280;44712;52.530;9.760;2023-03-04T14:02:11;101389.09;;;5.99;84.02
58927;BME280;44712;52.530;9.760;2023-03-04T14:04:42;101398.69;;;5.86;85.26
58927;BME280;44712;52.530;9.760;2023-03-04T14:07:30;101396.88;;;5.86;88.20
58927;BME280;44712;52.530;9.760;2023-03-04T14:12:59;101389.34;;;5.64;92.22
58927;BME280;44712;52.530;9.760;2023-03-04T14:15:30;101397.47;;;5.68;91.96
58927;BME280;44712;52.530;9.760;2023-03-04T14:18:03;101389.25;;;5.58;91.26
58927;BME280;44712;52.530;9.760;2023-03-04T14:20:39;101387.41;;;5.55;89.78
58927;BME280;44712;52.530;9.760;2023-03-04T14:23:32;101393.75;;;5.60;90.13